Time;durP1;ratioP1;P1;durP2;ratioP2;P2;SDS_P1;SDS_P2;PMS_P1;PMS_P2;Temp;Humidity;BMP_temperature;BMP_pressure;BME280_temperature;BME280_humidity;BME280_pressure;Samples;Min_cycle;Max_cycle;Signal;HPM_P1;HPM_P2
2023/04/26 00:01:30;;;;;;;11.27;7.10;;;;;;;18.18;45.37;102064.47;5035180;28;20310;-35
2023/04/26 00:03:56;;;;;;;12.48;7.40;;;;;;;18.15;45.52;102054.84;5033458;28;20335;-34
2023/04/26 00:06:23;;;;;;;11.85;6.72;;;;;;;18.14;45.68;102060.34;5039099;28;20141;-34
2023/04/26 00:08:50;;;;;;;11.30;7.13;;;;;;;18.11;45.71;102053.38;5034489;28;20404;-37
2023/04/26 00:11:17;;;;;;;11.93;6.72;;;;;;;18.11;45.69;102063.28;5037897;28;20057;-35
2023/04/26 00:13:43;;;;;;;11.55;6.82;;;;;;;18.09;45.89;102052.66;5036344;28;20053;-35
2023/04/26 00:16:12;;;;;;;10.13;6.18;;;;;;;18.10;45.49;102061.56;5034544;28;20057;-34
2023/04/26 00:18:38;;;;;;;10.02;6.20;;;;;;;18.08;45.75;102068.88;5036863;28;20049;-35
2023/04/26 00:21:05;;;;;;;10.23;6.45;;;;;;;18.07;45.56;102059.97;5037118;28;20080;-36
2023/04/26 00:23:32;;;;;;;10.57;6.30;;;;;;;18.07;45.91;102061.81;5035608;28;20085;-38
2023/04/26 00:25:58;;;;;;;10.60;6.10;;;;;;;18.08;45.60;102061.69;5034981;28;20483;-36
2023/04/26 00:28:25;;;;;;;8.60;5.63;;;;;;;18.10;45.91;102051.69;5035098;28;20465;-36
2023/04/26 00:30:52;;;;;;;8.93;5.43;;;;;;;18.15;45.81;102064.72;5035922;28;20120;-36
2023/04/26 00:33:18;;;;;;;9.65;5.70;;;;;;;18.19;45.69;102058.97;5034572;28;20051;-36
2023/04/26 00:35:45;;;;;;;9.27;5.10;;;;;;;18.22;45.68;102064.09;5035699;28;20053;-34
2023/04/26 00:38:11;;;;;;;9.30;5.53;;;;;;;18.27;45.10;102057.50;5033162;28;20053;-35
2023/04/26 00:40:38;;;;;;;8.43;5.25;;;;;;;18.29;45.04;102060.91;5035321;28;20053;-34
2023/04/26 00:43:05;;;;;;;10.88;5.97;;;;;;;18.33;45.55;102070.41;5035942;28;20091;-34
2023/04/26 00:45:33;;;;;;;8.43;5.20;;;;;;;18.32;45.32;102068.72;5035269;28;20060;-35
2023/04/26 00:48:01;;;;;;;8.13;5.22;;;;;;;18.32;45.36;102063.34;5036715;28;20052;-34
2023/04/26 00:50:29;;;;;;;7.78;5.05;;;;;;;18.31;45.51;102061.66;5034794;28;20045;-35
2023/04/26 00:52:56;;;;;;;8.70;5.28;;;;;;;18.26;45.16;102059.34;5034934;28;20049;-35
2023/04/26 00:55:25;;;;;;;8.80;5.35;;;;;;;18.22;45.71;102058.72;5035687;28;20055;-34
2023/04/26 00:57:52;;;;;;;8.90;5.68;;;;;;;18.17;45.50;102058.28;5035783;28;20603;-34
2023/04/26 01:00:19;;;;;;;7.88;4.85;;;;;;;18.15;45.39;102054.00;5039004;28;20053;-35
2023/04/26 01:02:46;;;;;;;10.38;5.25;;;;;;;18.13;45.54;102054.13;5033296;28;20046;-37
2023/04/26 01:05:13;;;;;;;9.30;4.90;;;;;;;18.10;45.67;102051.69;5034916;28;20045;-37
2023/04/26 01:07:40;;;;;;;7.10;4.57;;;;;;;18.08;45.34;102052.78;5035906;28;20285;-36
2023/04/26 01:10:08;;;;;;;7.35;4.65;;;;;;;18.03;45.74;102050.47;5033368;28;20053;-36
2023/04/26 01:12:37;;;;;;;7.07;4.30;;;;;;;18.00;45.78;102050.72;5047081;28;20160;-35
2023/04/26 01:15:05;;;;;;;7.25;4.50;;;;;;;17.93;45.56;102054.84;5036492;28;20053;-35
2023/04/26 01:17:32;;;;;;;6.45;4.60;;;;;;;17.85;45.76;102062.66;5036169;28;20041;-36
2023/04/26 01:19:59;;;;;;;6.72;4.22;;;;;;;17.77;45.80;102060.63;5030350;28;20061;-36
2023/04/26 01:22:27;;;;;;;6.32;4.10;;;;;;;17.69;46.06;102063.88;5030759;28;20056;-36
2023/04/26 01:24:55;;;;;;;6.63;4.43;;;;;;;17.61;46.17;102060.97;5029127;28;20400;-36
2023/04/26 01:27:21;;;;;;;7.55;4.55;;;;;;;17.54;46.33;102061.56;5032612;28;20053;-37
2023/04/26 01:29:48;;;;;;;6.90;4.45;;;;;;;17.45;46.29;102065.81;5031690;28;20099;-37
2023/04/26 01:32:15;;;;;;;6.97;4.30;;;;;;;17.36;47.11;102067.38;5030685;28;20061;-36
2023/04/26 01:34:41;;;;;;;6.63;4.00;;;;;;;17.27;46.88;102063.56;5028503;28;20055;-35
2023/04/26 01:37:08;;;;;;;5.82;3.90;;;;;;;17.20;46.56;102062.34;5032183;28;20057;-35
2023/04/26 01:39:35;;;;;;;6.70;4.13;;;;;;;17.13;47.05;102066.47;5031863;28;20056;-35
2023/04/26 01:42:03;;;;;;;5.93;3.65;;;;;;;17.05;47.34;102058.19;5032587;28;20045;-36
2023/04/26 01:44:30;;;;;;;6.00;3.67;;;;;;;16.98;47.61;102056.94;5031189;28;20052;-37
2023/04/26 01:46:56;;;;;;;6.63;4.47;;;;;;;16.91;47.76;102051.19;5037112;28;20137;-35
2023/04/26 01:49:23;;;;;;;6.40;4.05;;;;;;;16.87;48.31;102054.22;5035116;28;20340;-35
2023/04/26 01:51:50;;;;;;;6.97;3.63;;;;;;;16.81;48.03;102058.22;5034097;28;20060;-36
2023/04/26 01:54:16;;;;;;;6.60;3.88;;;;;;;16.77;48.13;102054.06;5031928;28;20046;-35
2023/04/26 01:56:43;;;;;;;6.75;3.67;;;;;;;16.73;48.45;102053.44;5034029;28;20053;-35
2023/04/26 01:59:09;;;;;;;6.13;3.83;;;;;;;16.78;48.18;102056.63;5034536;28;20053;-36
2023/04/26 02:01:36;;;;;;;7.07;4.07;;;;;;;16.88;47.83;102058.59;5035395;28;20058;-36
2023/04/26 02:04:04;;;;;;;6.95;3.95;;;;;;;17.00;47.88;102054.97;5038267;28;20049;-36
2023/04/26 02:06:31;;;;;;;7.68;4.10;;;;;;;17.14;47.26;102059.28;5029124;28;20048;-36
2023/04/26 02:08:57;;;;;;;5.35;3.50;;;;;;;17.26;47.15;102064.56;5041120;28;20045;-38
2023/04/26 02:11:25;;;;;;;6.05;3.63;;;;;;;17.40;46.83;102059.94;5032854;28;20049;-37
2023/04/26 02:13:52;;;;;;;5.20;2.80;;;;;;;17.50;47.26;102053.75;5033940;28;20088;-36
2023/04/26 02:16:19;;;;;;;4.50;3.00;;;;;;;17.60;46.44;102055.69;5028537;28;20052;-36
2023/04/26 02:18:48;;;;;;;5.45;3.05;;;;;;;17.68;46.32;102053.25;5032553;28;20049;-36
2023/04/26 02:21:19;;;;;;;6.47;3.70;;;;;;;17.74;46.63;102055.47;5028794;28;20112;-36
2023/04/26 02:23:46;;;;;;;4.78;2.50;;;;;;;17.79;46.04;102047.09;5034470;28;20091;-38
2023/04/26 02:26:13;;;;;;;4.50;2.78;;;;;;;17.82;45.95;102053.06;5032000;28;20053;-36
2023/04/26 02:28:40;;;;;;;4.82;3.30;;;;;;;17.83;45.98;102051.22;5033602;28;20348;-37
2023/04/26 02:31:07;;;;;;;6.30;3.40;;;;;;;17.84;45.73;102052.94;5028505;28;20140;-36
2023/04/26 02:33:33;;;;;;;4.78;2.92;;;;;;;17.82;46.11;102055.75;5033683;28;20407;-36
2023/04/26 02:36:07;;;;;;;5.07;3.10;;;;;;;17.80;46.08;102052.31;5031154;28;20176;-37
2023/04/26 02:38:35;;;;;;;6.28;3.25;;;;;;;17.79;45.87;102055.97;5029337;28;20049;-37
2023/04/26 02:41:02;;;;;;;5.28;3.40;;;;;;;17.79;45.73;102052.44;5031587;28;20107;-35
2023/04/26 02:43:29;;;;;;;4.57;2.72;;;;;;;17.78;45.90;102045.38;5033063;28;20042;-36
2023/04/26 02:45:57;;;;;;;4.43;2.85;;;;;;;17.76;45.79;102049.03;5030350;28;20108;-36
2023/04/26 02:48:24;;;;;;;4.68;2.60;;;;;;;17.73;46.33;102051.94;5032055;28;20055;-36
2023/04/26 02:50:51;;;;;;;4.35;2.83;;;;;;;17.71;45.79;102044.97;5031744;28;20076;-39
2023/04/26 02:53:18;;;;;;;3.70;2.33;;;;;;;17.68;45.69;102043.38;5033072;28;20052;-37
2023/04/26 02:55:44;;;;;;;5.30;2.72;;;;;;;17.64;45.54;102038.38;5030767;28;20052;-37
2023/04/26 02:58:11;;;;;;;3.15;2.28;;;;;;;17.58;45.69;102042.44;5039343;28;20387;-36
2023/04/26 03:00:38;;;;;;;4.45;2.90;;;;;;;17.52;46.52;102042.88;5035107;28;20425;-36
2023/04/26 03:03:05;;;;;;;3.92;2.60;;;;;;;17.45;45.88;102045.22;5032940;28;20480;-39
2023/04/26 03:05:32;;;;;;;5.95;2.60;;;;;;;17.39;46.39;102039.47;5034517;28;20053;-36
2023/04/26 03:07:58;;;;;;;5.57;2.78;;;;;;;17.32;46.39;102038.25;5038479;28;20075;-36
2023/04/26 03:10:25;;;;;;;5.28;2.45;;;;;;;17.23;46.78;102038.00;5034543;28;20053;-38
2023/04/26 03:12:52;;;;;;;4.57;2.80;;;;;;;17.15;46.76;102040.41;5031256;28;20057;-38
2023/04/26 03:15:18;;;;;;;5.10;2.38;;;;;;;17.08;47.44;102041.84;5036763;28;20068;-36
2023/04/26 03:17:45;;;;;;;2.78;2.22;;;;;;;17.01;47.17;102040.63;5035462;28;20049;-37
2023/04/26 03:20:12;;;;;;;3.17;2.30;;;;;;;16.93;47.45;102037.69;5036894;28;20072;-36
2023/04/26 03:22:39;;;;;;;4.30;2.53;;;;;;;16.86;47.03;102044.47;5036060;28;20068;-36
2023/04/26 03:25:06;;;;;;;4.65;2.70;;;;;;;16.80;47.15;102042.25;5036984;28;20445;-37
2023/04/26 03:27:33;;;;;;;4.90;2.97;;;;;;;16.75;47.14;102042.59;5035489;28;20075;-36
2023/04/26 03:30:00;;;;;;;4.78;2.25;;;;;;;16.69;47.54;102032.34;5036198;28;20501;-37
2023/04/26 03:32:26;;;;;;;4.53;2.33;;;;;;;16.63;47.39;102036.31;5035055;28;20072;-37
2023/04/26 03:34:53;;;;;;;3.75;2.25;;;;;;;16.62;47.25;102039.13;5036053;28;20050;-36
2023/04/26 03:37:19;;;;;;;3.05;2.45;;;;;;;16.68;47.54;102044.00;5039398;28;20099;-37
2023/04/26 03:39:46;;;;;;;4.35;2.10;;;;;;;16.75;48.06;102031.91;5034594;28;20392;-39
2023/04/26 03:42:12;;;;;;;4.57;2.40;;;;;;;16.86;48.00;102031.09;5038663;28;20048;-36
2023/04/26 03:44:39;;;;;;;3.65;2.40;;;;;;;16.97;47.23;102029.31;5034027;28;20037;-36
2023/04/26 03:47:06;;;;;;;3.47;2.33;;;;;;;17.10;46.79;102029.22;5020165;28;20052;-36
2023/04/26 03:49:32;;;;;;;4.75;2.10;;;;;;;17.22;47.25;102022.91;5037942;28;20053;-36
2023/04/26 03:51:59;;;;;;;2.97;2.03;;;;;;;17.32;46.66;102028.38;5037791;28;20051;-36
2023/04/26 03:54:25;;;;;;;3.63;2.10;;;;;;;17.42;46.71;102037.41;5032417;28;20041;-37
2023/04/26 03:56:52;;;;;;;2.45;1.90;;;;;;;17.48;46.27;102036.91;5039909;28;20057;-37
2023/04/26 03:59:19;;;;;;;2.85;1.98;;;;;;;17.55;45.94;102033.78;5033676;28;20052;-37
2023/04/26 04:01:45;;;;;;;3.88;2.00;;;;;;;17.58;46.47;102033.53;5036197;28;20053;-36
2023/04/26 04:04:12;;;;;;;4.25;2.00;;;;;;;17.59;45.82;102027.19;5033957;28;20053;-38
2023/04/26 04:06:39;;;;;;;3.95;2.47;;;;;;;17.61;46.31;102027.91;5031818;28;20048;-37
2023/04/26 04:09:06;;;;;;;3.65;2.28;;;;;;;17.64;45.95;102031.19;5029640;28;20380;-39
2023/04/26 04:11:33;;;;;;;5.20;2.15;;;;;;;17.65;45.95;102026.72;5031349;28;20061;-37
2023/04/26 04:14:00;;;;;;;3.60;1.90;;;;;;;17.64;45.83;102031.19;5028324;28;20049;-37
2023/04/26 04:16:26;;;;;;;2.80;1.90;;;;;;;17.63;45.57;102020.59;5028174;28;20061;-39
2023/04/26 04:18:53;;;;;;;2.85;1.90;;;;;;;17.62;45.83;102022.44;5025268;28;20045;-37
2023/04/26 04:21:20;;;;;;;3.67;2.17;;;;;;;17.61;45.89;102025.22;5027353;28;20408;-37
2023/04/26 04:23:47;;;;;;;2.38;1.85;;;;;;;17.60;45.88;102020.84;5028027;28;20054;-36
2023/04/26 04:26:13;;;;;;;3.10;2.05;;;;;;;17.59;45.37;102025.34;5034913;28;20049;-36
2023/04/26 04:28:40;;;;;;;2.88;1.85;;;;;;;17.59;46.13;102037.91;5035679;28;20053;-36
2023/04/26 04:31:08;;;;;;;2.72;2.10;;;;;;;17.57;45.96;102038.03;5033213;28;20132;-38
2023/04/26 04:33:35;;;;;;;4.47;2.58;;;;;;;17.56;45.41;102041.69;5032545;28;20048;-37
2023/04/26 04:36:01;;;;;;;3.70;2.10;;;;;;;17.56;45.45;102033.63;5035380;28;20345;-36
2023/04/26 04:38:28;;;;;;;4.20;2.30;;;;;;;17.54;45.60;102032.91;5039753;28;20049;-36
2023/04/26 04:40:55;;;;;;;3.80;2.50;;;;;;;17.54;45.39;102038.28;5033377;28;20053;-38
2023/04/26 04:43:22;;;;;;;4.22;2.50;;;;;;;17.53;45.68;102049.97;5033853;28;20045;-38
2023/04/26 04:45:49;;;;;;;5.32;2.95;;;;;;;17.51;45.93;102036.69;5033541;28;20067;-36
2023/04/26 04:48:15;;;;;;;3.95;3.17;;;;;;;17.52;46.15;102040.22;5030380;28;20056;-38
2023/04/26 04:50:42;;;;;;;4.85;3.13;;;;;;;17.52;45.46;102033.03;5038463;28;20444;-36
2023/04/26 04:53:09;;;;;;;6.40;2.95;;;;;;;17.53;46.01;102041.94;5038846;28;20045;-37
2023/04/26 04:55:36;;;;;;;4.65;3.00;;;;;;;17.54;46.16;102040.97;5037723;28;20155;-36
2023/04/26 04:58:03;;;;;;;4.45;2.78;;;;;;;17.53;45.72;102036.59;5034443;28;20050;-36
2023/04/26 05:00:29;;;;;;;6.40;3.20;;;;;;;17.51;45.94;102047.41;5032234;28;20373;-36
2023/04/26 05:02:56;;;;;;;5.70;3.00;;;;;;;17.49;45.75;102035.97;5031868;28;20049;-36
2023/04/26 05:05:23;;;;;;;6.45;3.10;;;;;;;17.46;45.92;102035.34;5032961;28;20069;-36
2023/04/26 05:07:49;;;;;;;4.72;3.00;;;;;;;17.43;45.55;102043.63;5036294;28;20063;-36
2023/04/26 05:10:16;;;;;;;6.47;3.30;;;;;;;17.40;45.86;102043.84;5036634;28;20128;-36
2023/04/26 05:12:42;;;;;;;4.90;3.00;;;;;;;17.37;46.20;102044.13;5034276;28;20049;-36
2023/04/26 05:15:09;;;;;;;5.38;3.47;;;;;;;17.36;46.26;102045.91;5036964;28;20048;-36
2023/04/26 05:17:36;;;;;;;6.75;3.88;;;;;;;17.31;45.88;102044.59;5034876;28;20046;-37
2023/04/26 05:20:06;;;;;;;7.85;3.55;;;;;;;17.33;46.23;102043.50;5037750;28;20414;-38
2023/04/26 05:22:35;;;;;;;6.05;3.85;;;;;;;17.40;46.38;102049.22;5038229;28;20059;-36
2023/04/26 05:25:03;;;;;;;8.07;3.80;;;;;;;17.46;46.11;102057.66;5033551;28;20124;-37
2023/04/26 05:27:29;;;;;;;5.80;4.18;;;;;;;17.53;45.68;102055.34;5031186;28;20045;-36
2023/04/26 05:29:56;;;;;;;8.45;4.63;;;;;;;17.59;45.79;102060.22;5034936;28;20171;-37
2023/04/26 05:32:22;;;;;;;7.78;3.80;;;;;;;17.64;46.12;102059.84;5033939;28;20127;-36
2023/04/26 05:34:49;;;;;;;6.45;4.07;;;;;;;17.68;45.86;102062.16;5032194;28;20049;-36
2023/04/26 05:37:16;;;;;;;7.45;3.92;;;;;;;17.72;46.07;102055.56;5033008;28;20053;-37
2023/04/26 05:39:43;;;;;;;7.72;4.55;;;;;;;17.74;45.80;102051.00;5035978;28;20094;-38
2023/04/26 05:42:09;;;;;;;6.35;4.10;;;;;;;17.77;45.49;102057.94;5034513;28;20057;-36
2023/04/26 05:44:36;;;;;;;7.25;4.72;;;;;;;17.79;45.64;102058.66;5028819;28;20045;-36
2023/04/26 05:47:03;;;;;;;6.43;3.70;;;;;;;17.83;45.77;102061.94;5028227;28;20045;-37
2023/04/26 05:49:29;;;;;;;8.85;4.68;;;;;;;17.85;45.64;102062.66;5035270;28;20045;-36
2023/04/26 05:51:59;;;;;;;7.82;4.88;;;;;;;17.88;45.55;102057.06;5036590;28;20064;-36
2023/04/26 05:54:26;;;;;;;9.82;4.60;;;;;;;17.90;45.65;102063.19;5037592;28;20076;-36
2023/04/26 05:56:52;;;;;;;8.23;4.70;;;;;;;17.91;45.61;102064.88;5037868;28;20057;-36
2023/04/26 05:59:19;;;;;;;10.05;4.82;;;;;;;17.91;45.28;102062.19;5027523;28;20136;-36
2023/04/26 06:01:46;;;;;;;8.38;5.05;;;;;;;17.91;45.44;102063.03;5030369;28;20069;-36
2023/04/26 06:04:13;;;;;;;7.40;4.35;;;;;;;17.91;45.17;102059.50;5030836;28;20045;-37
2023/04/26 06:06:40;;;;;;;10.18;4.55;;;;;;;17.91;45.50;102059.50;5033267;28;20060;-38
2023/04/26 06:09:07;;;;;;;7.57;4.50;;;;;;;17.90;45.12;102057.81;5032004;28;20095;-39
2023/04/26 06:11:34;;;;;;;8.32;5.38;;;;;;;17.89;45.55;102059.66;5030691;28;20092;-36
2023/04/26 06:14:00;;;;;;;12.57;5.05;;;;;;;17.88;45.21;102063.28;5030223;28;20937;-37
2023/04/26 06:16:27;;;;;;;8.40;4.63;;;;;;;17.88;45.30;102070.47;5033524;28;20053;-37
2023/04/26 06:18:53;;;;;;;7.80;4.93;;;;;;;17.88;45.68;102067.78;5032834;28;20445;-37
2023/04/26 06:21:20;;;;;;;8.88;5.07;;;;;;;17.87;45.22;102076.81;5033500;28;20748;-37
2023/04/26 06:23:47;;;;;;;7.95;4.53;;;;;;;17.86;45.27;102073.28;5027193;28;20051;-36
2023/04/26 06:26:13;;;;;;;5.63;3.83;;;;;;;17.85;45.30;102078.75;5035828;28;20053;-37
2023/04/26 06:28:40;;;;;;;7.85;4.43;;;;;;;17.85;45.45;102081.44;5029866;28;20052;-36
2023/04/26 06:31:07;;;;;;;7.03;4.32;;;;;;;17.85;45.66;102076.06;5033740;28;20132;-36
2023/04/26 06:33:34;;;;;;;7.93;4.38;;;;;;;17.84;45.54;102083.28;5032509;28;20064;-37
2023/04/26 06:36:01;;;;;;;7.75;4.28;;;;;;;17.83;45.62;102089.63;5035409;28;20045;-37
2023/04/26 06:38:28;;;;;;;7.57;4.32;;;;;;;17.84;45.53;102083.28;5031617;28;20081;-36
2023/04/26 06:40:54;;;;;;;8.05;4.50;;;;;;;17.84;45.40;102082.44;5039123;28;20351;-36
2023/04/26 06:43:21;;;;;;;7.18;4.35;;;;;;;17.84;45.59;102085.97;5031829;28;20433;-37
2023/04/26 06:45:48;;;;;;;6.35;4.03;;;;;;;17.84;45.36;102088.63;5034985;28;20051;-37
2023/04/26 06:48:15;;;;;;;7.20;4.75;;;;;;;17.83;45.42;102092.31;5035001;28;20132;-37
2023/04/26 06:50:41;;;;;;;6.85;3.92;;;;;;;17.84;45.63;102090.47;5035595;28;20045;-37
2023/04/26 06:53:08;;;;;;;6.47;3.80;;;;;;;17.83;45.36;102086.94;5037712;28;20054;-37
2023/04/26 06:55:34;;;;;;;8.10;4.85;;;;;;;17.84;45.55;102090.47;5033024;28;20091;-36
2023/04/26 06:58:01;;;;;;;7.10;4.40;;;;;;;17.84;45.68;102094.00;5030646;28;20050;-36
2023/04/26 07:00:29;;;;;;;6.95;4.32;;;;;;;17.84;45.72;102093.16;5033164;28;20124;-36
2023/04/26 07:02:55;;;;;;;5.85;3.67;;;;;;;17.84;45.91;102093.16;5031931;28;20097;-36
2023/04/26 07:05:22;;;;;;;6.50;3.85;;;;;;;17.84;45.60;102088.63;5032791;28;20064;-37
2023/04/26 07:07:49;;;;;;;6.22;4.30;;;;;;;17.84;45.62;102093.16;5033613;28;20072;-37
2023/04/26 07:10:16;;;;;;;8.23;4.18;;;;;;;17.84;45.59;102087.78;5030114;28;20053;-37
2023/04/26 07:12:43;;;;;;;9.80;4.55;;;;;;;17.84;45.39;102088.63;5031205;28;20428;-36
2023/04/26 07:15:10;;;;;;;7.13;4.25;;;;;;;17.83;45.70;102088.78;5033373;28;20457;-36
2023/04/26 07:17:36;;;;;;;6.05;3.85;;;;;;;17.82;45.60;102087.91;5034701;28;20503;-37
2023/04/26 07:20:04;;;;;;;6.82;4.18;;;;;;;17.82;45.86;102090.59;5034413;28;20083;-36
2023/04/26 07:22:30;;;;;;;7.15;3.67;;;;;;;17.81;45.58;102090.72;5032063;28;20178;-36
2023/04/26 07:24:57;;;;;;;9.40;4.13;;;;;;;17.80;45.86;102089.00;5030696;28;20072;-35
2023/04/26 07:27:24;;;;;;;8.80;4.13;;;;;;;17.81;46.04;102090.72;5036369;28;20053;-36
2023/04/26 07:29:53;;;;;;;6.20;3.70;;;;;;;17.79;45.93;102093.53;5037425;28;20380;-37
2023/04/26 07:32:20;;;;;;;9.63;4.15;;;;;;;17.78;46.03;102093.66;5036207;28;20140;-36
2023/04/26 07:34:47;;;;;;;8.65;4.75;;;;;;;17.72;45.93;102095.78;5029295;28;20091;-36
2023/04/26 07:37:13;;;;;;;7.90;4.10;;;;;;;17.68;45.86;102094.31;5037102;28;20049;-36
2023/04/26 07:39:40;;;;;;;8.30;4.50;;;;;;;17.65;46.62;102097.28;5036205;28;20045;-36
2023/04/26 07:42:06;;;;;;;11.55;4.78;;;;;;;17.63;46.54;102103.72;5032661;28;20049;-36
2023/04/26 07:44:33;;;;;;;9.77;4.50;;;;;;;17.61;46.44;102108.34;5037670;28;20310;-37
2023/04/26 07:47:00;;;;;;;7.88;4.10;;;;;;;17.58;46.51;102096.03;5036362;28;20052;-36
2023/04/26 07:49:26;;;;;;;13.23;4.10;;;;;;;17.57;46.50;102107.75;5035633;28;20053;-36
2023/04/26 07:51:53;;;;;;;11.18;4.85;;;;;;;17.56;46.70;102108.69;5037256;28;20057;-36
2023/04/26 07:54:20;;;;;;;7.78;4.40;;;;;;;17.53;46.98;102117.00;5035172;28;20076;-36
2023/04/26 07:56:47;;;;;;;9.73;4.45;;;;;;;17.54;46.29;102112.50;5038728;28;20333;-36
2023/04/26 07:59:13;;;;;;;8.38;4.20;;;;;;;17.50;46.40;102112.72;5033371;28;20420;-35
2023/04/26 08:01:40;;;;;;;10.73;4.68;;;;;;;17.49;46.71;102112.84;5036786;28;20059;-36
2023/04/26 08:04:06;;;;;;;9.15;4.47;;;;;;;17.47;46.78;102118.31;5035884;28;20207;-36
2023/04/26 08:06:33;;;;;;;10.27;4.32;;;;;;;17.45;46.71;102114.91;5036182;28;20124;-36
2023/04/26 08:09:00;;;;;;;8.70;4.60;;;;;;;17.44;47.24;102117.69;5037444;28;20428;-36
2023/04/26 08:11:27;;;;;;;9.23;4.78;;;;;;;17.43;46.86;102122.19;5042287;28;20056;-37
2023/04/26 08:13:53;;;;;;;10.98;3.78;;;;;;;17.43;46.72;102121.34;5039421;28;20045;-36
2023/04/26 08:16:20;;;;;;;8.70;3.97;;;;;;;17.42;46.85;102114.28;5037815;28;20045;-37
2023/04/26 08:18:47;;;;;;;8.43;4.03;;;;;;;17.44;47.25;102117.69;5030589;28;20475;-37
2023/04/26 08:21:13;;;;;;;10.50;3.92;;;;;;;17.43;46.71;102106.13;5037007;28;20083;-37
2023/04/26 08:23:40;;;;;;;9.27;3.78;;;;;;;17.44;46.79;102101.59;5035217;28;20075;-36
2023/04/26 08:26:07;;;;;;;11.10;4.55;;;;;;;17.44;47.29;102115.00;5032037;28;20527;-37
2023/04/26 08:28:34;;;;;;;8.75;3.75;;;;;;;17.44;46.85;102118.53;5034398;28;20306;-36
2023/04/26 08:31:01;;;;;;;10.32;4.30;;;;;;;17.46;47.27;102110.41;5037978;28;20429;-37
2023/04/26 08:33:28;;;;;;;6.97;3.67;;;;;;;17.48;47.02;102117.31;5035399;28;20045;-37
2023/04/26 08:35:54;;;;;;;8.52;3.30;;;;;;;17.50;46.90;102119.91;5039481;28;20041;-37
2023/04/26 08:38:21;;;;;;;6.70;3.53;;;;;;;17.54;46.72;102121.38;5037054;28;20163;-37
2023/04/26 08:40:50;;;;;;;8.07;3.80;;;;;;;17.58;47.24;102120.16;5040010;28;20051;-37
2023/04/26 08:43:16;;;;;;;7.72;3.33;;;;;;;17.60;46.37;102118.22;5041573;28;20045;-37
2023/04/26 08:45:45;;;;;;;8.07;3.13;;;;;;;17.65;46.48;102118.72;5033297;28;20056;-37
2023/04/26 08:48:16;;;;;;;6.90;3.67;;;;;;;17.67;46.62;102119.44;5030747;28;20169;-37
2023/04/26 08:50:47;;;;;;;6.57;3.20;;;;;;;17.71;46.72;102117.38;5033038;28;20055;-37
2023/04/26 08:53:16;;;;;;;5.57;3.25;;;;;;;17.74;46.50;102115.34;5034483;28;20148;-37
2023/04/26 08:55:50;;;;;;;7.15;3.40;;;;;;;17.77;46.34;102100.84;5034914;28;20429;-37
2023/04/26 08:58:17;;;;;;;7.60;3.50;;;;;;;17.82;46.21;102109.38;5031877;28;20049;-36
2023/04/26 09:00:45;;;;;;;8.90;3.30;;;;;;;17.85;45.97;102101.09;5034296;28;20417;-37
2023/04/26 09:03:12;;;;;;;5.30;2.80;;;;;;;17.89;45.93;102104.34;5030985;28;20136;-37
2023/04/26 09:05:43;;;;;;;7.28;3.13;;;;;;;17.91;46.19;102102.44;5034154;28;20129;-37
2023/04/26 09:08:16;;;;;;;6.82;2.67;;;;;;;17.94;45.79;102104.88;5034608;28;20298;-37
2023/04/26 09:10:43;;;;;;;6.70;2.65;;;;;;;17.97;45.43;102100.13;5035863;28;20045;-37
2023/04/26 09:13:10;;;;;;;5.93;3.33;;;;;;;17.99;45.67;102103.50;5035607;28;20061;-37
2023/04/26 09:15:37;;;;;;;6.93;3.15;;;;;;;18.00;45.60;102097.16;5035546;28;20053;-37
2023/04/26 09:18:18;;;;;;;6.97;2.83;;;;;;;18.02;45.57;102107.78;5035876;28;20151;-37
2023/04/26 09:20:45;;;;;;;7.50;3.17;;;;;;;18.04;45.42;102104.97;5032103;28;20095;-37
2023/04/26 09:23:12;;;;;;;5.70;2.80;;;;;;;18.03;45.54;102104.13;5036140;28;20100;-37
2023/04/26 09:25:38;;;;;;;5.65;2.90;;;;;;;18.02;45.50;102104.25;5033141;28;20120;-37
2023/04/26 09:28:19;;;;;;;6.85;2.72;;;;;;;18.00;45.58;102107.06;5035396;28;20052;-37
2023/04/26 09:30:47;;;;;;;4.80;2.60;;;;;;;17.98;45.53;102117.91;5035174;28;20061;-37
2023/04/26 09:33:13;;;;;;;3.78;2.60;;;;;;;17.96;45.45;102119.00;5026619;28;20132;-37
2023/04/26 09:35:42;;;;;;;6.38;2.67;;;;;;;17.93;45.55;102116.56;5035836;28;20049;-37
2023/04/26 09:38:13;;;;;;;7.05;3.13;;;;;;;17.89;46.12;102120.44;5034821;28;20120;-38
2023/04/26 09:40:48;;;;;;;6.32;3.05;;;;;;;17.85;45.72;102122.56;5032213;28;20057;-38
2023/04/26 09:43:16;;;;;;;5.18;2.58;;;;;;;17.81;45.88;102126.44;5028407;28;20539;-37
2023/04/26 09:45:47;;;;;;;4.43;2.42;;;;;;;17.76;46.22;102126.78;5028026;28;20400;-37
2023/04/26 09:48:17;;;;;;;3.65;2.20;;;;;;;17.73;46.12;102136.91;5031737;28;20053;-37
2023/04/26 09:50:45;;;;;;;4.05;2.53;;;;;;;17.70;46.19;102132.63;5028990;28;20081;-37
2023/04/26 09:53:38;;;;;;;6.90;2.90;;;;;;;17.64;46.37;102127.72;5030543;28;20349;-36
2023/04/26 09:56:13;;;;;;;4.67;2.77;;;;;;;17.63;46.91;102122.47;5032309;28;20073;-38
2023/04/26 09:58:46;;;;;;;4.57;2.40;;;;;;;17.60;46.51;102128.09;5031101;28;20049;-37
2023/04/26 10:01:15;;;;;;;4.70;2.42;;;;;;;17.57;46.86;102123.84;5033066;28;20053;-37
2023/04/26 10:03:42;;;;;;;4.32;2.40;;;;;;;17.55;47.11;102125.75;5033267;28;20724;-37
2023/04/26 10:06:11;;;;;;;3.55;1.85;;;;;;;17.54;46.65;102120.53;5036647;28;20499;-37
2023/04/26 10:08:38;;;;;;;4.93;2.38;;;;;;;17.51;46.67;102122.47;5035787;28;20049;-37
2023/04/26 10:11:11;;;;;;;4.18;2.13;;;;;;;17.51;46.52;102124.28;5037855;28;20060;-37
2023/04/26 10:13:41;;;;;;;4.88;2.10;;;;;;;17.50;46.48;102119.91;5036788;28;20484;-37
2023/04/26 10:16:08;;;;;;;5.93;2.20;;;;;;;17.49;46.55;102119.06;5038951;28;20049;-37
2023/04/26 10:18:36;;;;;;;3.95;2.40;;;;;;;17.50;46.89;102118.09;5036916;28;20045;-36
2023/04/26 10:21:18;;;;;;;3.72;2.33;;;;;;;17.49;46.63;102119.06;5040782;28;20049;-37
2023/04/26 10:23:47;;;;;;;3.13;2.00;;;;;;;17.52;46.90;102115.28;5035777;28;20342;-36
2023/04/26 10:26:47;;;;;;;3.63;2.00;;;;;;;17.52;46.58;102118.81;5038867;28;20462;-37
2023/04/26 10:29:14;;;;;;;4.70;2.03;;;;;;;17.55;46.79;102115.03;5037010;28;20068;-37
2023/04/26 10:32:09;;;;;;;3.40;1.85;;;;;;;17.57;47.12;102112.22;5035965;28;20130;-36
2023/04/26 10:34:36;;;;;;;5.57;2.40;;;;;;;17.59;46.50;102119.19;5031931;28;20043;-37
2023/04/26 10:37:17;;;;;;;3.20;2.05;;;;;;;17.62;46.83;102112.75;5034621;28;20041;-37
2023/04/26 10:39:45;;;;;;;3.15;1.85;;;;;;;17.66;46.43;102120.44;5039870;28;20385;-37
2023/04/26 10:42:21;;;;;;;2.30;1.55;;;;;;;17.69;46.47;102106.78;5034991;28;20065;-37
2023/04/26 10:44:54;;;;;;;6.65;2.17;;;;;;;17.73;46.37;102110.94;5030483;28;20122;-37
2023/04/26 10:47:32;;;;;;;3.28;2.08;;;;;;;17.79;46.37;102111.44;5034684;28;20057;-37
2023/04/26 10:50:07;;;;;;;3.53;1.80;;;;;;;17.83;46.25;102113.75;5035016;28;20045;-37
2023/04/26 10:52:58;;;;;;;3.35;1.67;;;;;;;17.88;45.55;102113.38;5038564;28;20088;-37
2023/04/26 10:55:43;;;;;;;3.45;2.13;;;;;;;17.91;45.67;102113.16;5030696;28;20429;-38
2023/04/26 10:58:28;;;;;;;4.55;1.77;;;;;;;17.93;45.38;102113.88;5035183;28;20131;-37
2023/04/26 11:01:10;;;;;;;4.63;1.80;;;;;;;17.96;45.44;102106.44;5037001;28;20049;-37
2023/04/26 11:03:37;;;;;;;2.47;1.58;;;;;;;17.98;45.26;102103.66;5028835;28;20108;-37
2023/04/26 11:06:14;;;;;;;2.90;1.48;;;;;;;17.99;45.60;102097.31;5037398;28;20049;-37
2023/04/26 11:08:42;;;;;;;3.45;1.60;;;;;;;18.02;45.85;102097.06;5031200;28;20433;-36
2023/04/26 11:11:12;;;;;;;2.90;1.52;;;;;;;18.05;45.59;102093.25;5032654;28;20121;-37
2023/04/26 11:13:40;;;;;;;2.30;1.30;;;;;;;18.06;45.63;102093.16;5034684;28;20361;-37
2023/04/26 11:16:09;;;;;;;4.28;1.80;;;;;;;18.07;45.21;102091.31;5037458;28;20139;-37
2023/04/26 11:18:39;;;;;;;2.75;1.30;;;;;;;18.07;45.73;102078.75;5037423;28;20067;-37
2023/04/26 11:21:06;;;;;;;1.92;1.27;;;;;;;18.09;45.22;102084.88;5040855;28;20136;-36
2023/04/26 11:23:33;;;;;;;2.65;1.55;;;;;;;18.10;45.62;102081.19;5037596;28;20099;-37
2023/04/26 11:26:04;;;;;;;3.15;1.77;;;;;;;18.11;45.59;102069.47;5039830;28;20045;-39
2023/04/26 11:28:32;;;;;;;2.45;1.50;;;;;;;18.13;45.55;102082.75;5037637;28;20373;-37